Time;durP1;ratioP1;P1;durP2;ratioP2;P2;SDS_P1;SDS_P2;PMS_P1;PMS_P2;Temp;Humidity;BMP_temperature;BMP_pressure;BME280_temperature;BME280_humidity;BME280_pressure;Samples;Min_cycle;Max_cycle;Signal;HPM_P1;HPM_P2
2023/08/06 00:00:17;;;;;;;3.33;2.33;;;;;;;;;;606357;24;1468;-78
2023/08/06 00:00:33;;;;;;;2.70;2.13;;;;;;;;;;604945;24;1605;-77
2023/08/06 00:00:48;;;;;;;3.75;2.20;;;;;;;;;;605625;24;1318;-77
2023/08/06 00:01:09;;;;;;;3.73;2.30;;;;;;;;;;604225;24;1362;-77
2023/08/06 00:01:25;;;;;;;2.95;2.17;;;;;;;;;;601769;24;1465;-77
2023/08/06 00:01:46;;;;;;;3.10;2.10;;;;;;;;;;601942;24;852;-78
2023/08/06 00:02:02;;;;;;;2.40;2.00;;;;;;;;;;601521;24;1180;-78
2023/08/06 00:02:27;;;;;;;2.30;2.10;;;;;;;;;;604841;24;1046;-77
2023/08/06 00:02:55;;;;;;;2.85;2.00;;;;;;;;;;605136;24;1293;-78
2023/08/06 00:03:16;;;;;;;3.20;2.20;;;;;;;;;;608543;24;1394;-77
2023/08/06 00:03:44;;;;;;;4.95;2.30;;;;;;;;;;605340;24;1320;-78
2023/08/06 00:04:03;;;;;;;2.92;2.00;;;;;;;;;;602540;24;1165;-77
2023/08/06 00:04:24;;;;;;;3.45;2.20;;;;;;;;;;602164;24;1325;-77
2023/08/06 00:05:06;;;;;;;2.90;1.98;;;;;;;;;;603946;24;1216;-77
2023/08/06 00:05:28;;;;;;;3.20;2.10;;;;;;;;;;609729;24;1055;-78
2023/08/06 00:05:50;;;;;;;2.83;2.03;;;;;;;;;;611902;23;1285;-77
2023/08/06 00:06:11;;;;;;;3.70;2.30;;;;;;;;;;613720;23;1345;-78
2023/08/06 00:06:27;;;;;;;2.80;2.00;;;;;;;;;;614093;23;891;-77
2023/08/06 00:06:49;;;;;;;2.90;1.90;;;;;;;;;;610530;24;1482;-78
2023/08/06 00:07:11;;;;;;;3.08;2.17;;;;;;;;;;612079;24;888;-77
2023/08/06 00:08:05;;;;;;;2.88;2.38;;;;;;;;;;610309;24;1343;-78
2023/08/06 00:08:22;;;;;;;3.25;2.33;;;;;;;;;;609813;24;1312;-77
2023/08/06 00:08:37;;;;;;;3.20;2.30;;;;;;;;;;612012;23;1436;-77
2023/08/06 00:09:22;;;;;;;2.92;2.30;;;;;;;;;;610757;24;1345;-77
2023/08/06 00:09:41;;;;;;;3.47;2.10;;;;;;;;;;607466;24;1189;-77
2023/08/06 00:10:13;;;;;;;3.00;1.90;;;;;;;;;;608750;24;1560;-77
2023/08/06 00:10:32;;;;;;;3.80;2.13;;;;;;;;;;608550;24;999;-78
2023/08/06 00:10:48;;;;;;;3.05;1.95;;;;;;;;;;610348;24;924;-77
2023/08/06 00:11:04;;;;;;;2.65;2.03;;;;;;;;;;607705;24;1254;-77
2023/08/06 00:11:20;;;;;;;3.17;2.17;;;;;;;;;;607902;24;1009;-77
2023/08/06 00:11:36;;;;;;;3.58;2.20;;;;;;;;;;607483;24;1929;-77
2023/08/06 00:11:52;;;;;;;3.40;2.00;;;;;;;;;;610074;24;833;-77
2023/08/06 00:12:11;;;;;;;2.85;2.00;;;;;;;;;;611340;24;1164;-77
2023/08/06 00:12:27;;;;;;;2.40;2.03;;;;;;;;;;607913;24;1429;-77
2023/08/06 00:12:46;;;;;;;3.17;2.10;;;;;;;;;;605113;24;1365;-77
2023/08/06 00:13:01;;;;;;;2.88;2.10;;;;;;;;;;607529;24;1519;-77
2023/08/06 00:13:20;;;;;;;2.90;2.20;;;;;;;;;;608650;24;1362;-78
2023/08/06 00:13:42;;;;;;;4.03;2.30;;;;;;;;;;605230;24;1331;-77
2023/08/06 00:14:00;;;;;;;3.50;2.20;;;;;;;;;;608070;24;1409;-76
2023/08/06 00:14:19;;;;;;;2.80;2.10;;;;;;;;;;607354;24;1525;-78
2023/08/06 00:14:35;;;;;;;2.47;2.08;;;;;;;;;;607832;24;1467;-77
2023/08/06 00:14:56;;;;;;;2.65;2.00;;;;;;;;;;608065;24;1343;-77
2023/08/06 00:15:23;;;;;;;3.00;2.03;;;;;;;;;;608305;24;1357;-76
2023/08/06 00:15:51;;;;;;;3.53;2.20;;;;;;;;;;605930;24;851;-78
2023/08/06 00:16:13;;;;;;;3.38;2.20;;;;;;;;;;602953;24;1484;-78
2023/08/06 00:16:52;;;;;;;2.38;1.92;;;;;;;;;;605523;24;1286;-78
2023/08/06 00:17:08;;;;;;;3.78;2.33;;;;;;;;;;608554;24;904;-77
2023/08/06 00:17:30;;;;;;;3.70;2.22;;;;;;;;;;608454;24;1338;-78
2023/08/06 00:17:49;;;;;;;2.90;2.10;;;;;;;;;;612075;24;983;-78
2023/08/06 00:18:07;;;;;;;2.53;2.20;;;;;;;;;;608431;24;1572;-77
2023/08/06 00:18:25;;;;;;;2.20;2.00;;;;;;;;;;607714;24;1014;-77
2023/08/06 00:18:44;;;;;;;2.47;2.00;;;;;;;;;;605811;24;1335;-78
2023/08/06 00:19:02;;;;;;;2.88;2.10;;;;;;;;;;602589;24;1396;-77
2023/08/06 00:19:21;;;;;;;3.05;2.10;;;;;;;;;;602261;24;1510;-77
2023/08/06 00:19:42;;;;;;;2.70;2.20;;;;;;;;;;602935;24;1232;-78
2023/08/06 00:20:11;;;;;;;2.53;2.20;;;;;;;;;;604654;24;1121;-77
2023/08/06 00:20:27;;;;;;;2.90;2.40;;;;;;;;;;608271;24;1156;-78
2023/08/06 00:20:43;;;;;;;3.08;2.40;;;;;;;;;;611242;24;1278;-78
2023/08/06 00:20:59;;;;;;;3.22;2.20;;;;;;;;;;610721;24;1399;-78
2023/08/06 00:21:15;;;;;;;3.50;2.20;;;;;;;;;;608647;24;1329;-77
2023/08/06 00:21:31;;;;;;;3.53;2.10;;;;;;;;;;611442;24;1351;-78
2023/08/06 00:21:51;;;;;;;2.63;2.00;;;;;;;;;;611087;24;1465;-77
2023/08/06 00:22:08;;;;;;;2.60;2.25;;;;;;;;;;608791;24;1410;-78
2023/08/06 00:22:35;;;;;;;2.42;2.20;;;;;;;;;;608764;24;1445;-78
2023/08/06 00:22:51;;;;;;;3.20;2.20;;;;;;;;;;608558;24;902;-79
2023/08/06 00:23:13;;;;;;;3.10;2.30;;;;;;;;;;609867;24;1163;-78
2023/08/06 00:23:35;;;;;;;4.28;2.30;;;;;;;;;;609166;24;1542;-78
2023/08/06 00:23:56;;;;;;;3.53;2.22;;;;;;;;;;605162;24;1342;-78
2023/08/06 00:24:15;;;;;;;3.45;2.20;;;;;;;;;;608386;24;1180;-78
2023/08/06 00:24:34;;;;;;;3.17;2.20;;;;;;;;;;608583;24;1391;-78
2023/08/06 00:24:57;;;;;;;3.50;2.40;;;;;;;;;;609004;24;1210;-77
2023/08/06 00:25:16;;;;;;;2.75;2.33;;;;;;;;;;608779;24;904;-78
2023/08/06 00:25:32;;;;;;;3.25;2.30;;;;;;;;;;611381;24;888;-77
2023/08/06 00:25:47;;;;;;;2.90;2.10;;;;;;;;;;607960;24;1226;-76
2023/08/06 00:26:03;;;;;;;2.28;2.00;;;;;;;;;;605157;24;1263;-77
2023/08/06 00:26:19;;;;;;;2.33;2.10;;;;;;;;;;605357;24;1406;-77
2023/08/06 00:26:35;;;;;;;2.80;2.10;;;;;;;;;;604830;24;1350;-76
2023/08/06 00:27:12;;;;;;;3.22;2.10;;;;;;;;;;604594;24;1595;-77
2023/08/06 00:27:28;;;;;;;3.17;2.00;;;;;;;;;;604810;24;1357;-77
2023/08/06 00:27:46;;;;;;;2.83;1.92;;;;;;;;;;607896;24;1505;-77
2023/08/06 00:28:01;;;;;;;2.70;2.20;;;;;;;;;;610437;24;1085;-77
2023/08/06 00:28:22;;;;;;;2.65;2.20;;;;;;;;;;617166;23;1013;-77
2023/08/06 00:28:38;;;;;;;2.72;2.13;;;;;;;;;;619830;23;1466;-77
2023/08/06 00:28:54;;;;;;;2.80;2.20;;;;;;;;;;619827;23;1300;-76
2023/08/06 00:29:10;;;;;;;2.33;2.10;;;;;;;;;;616533;23;1372;-76
2023/08/06 00:29:25;;;;;;;2.83;2.20;;;;;;;;;;616549;23;1375;-77
2023/08/06 00:29:44;;;;;;;3.27;2.30;;;;;;;;;;618257;23;1074;-77
2023/08/06 00:30:05;;;;;;;3.55;2.22;;;;;;;;;;619290;23;1435;-77
2023/08/06 00:30:24;;;;;;;4.13;2.30;;;;;;;;;;619291;23;1332;-77
2023/08/06 00:30:40;;;;;;;3.75;2.40;;;;;;;;;;619577;23;1384;-77
2023/08/06 00:31:02;;;;;;;3.28;2.40;;;;;;;;;;619598;23;1383;-77
2023/08/06 00:31:27;;;;;;;2.90;2.28;;;;;;;;;;622370;23;1408;-77
2023/08/06 00:31:57;;;;;;;2.95;2.20;;;;;;;;;;619914;23;1970;-77
2023/08/06 00:32:24;;;;;;;2.58;2.10;;;;;;;;;;620185;23;902;-78
2023/08/06 00:32:53;;;;;;;2.92;2.28;;;;;;;;;;619430;23;1519;-78
2023/08/06 00:33:09;;;;;;;2.83;2.33;;;;;;;;;;622447;23;1411;-77
2023/08/06 00:33:27;;;;;;;2.60;2.40;;;;;;;;;;623044;23;1259;-78
2023/08/06 00:33:58;;;;;;;2.53;2.10;;;;;;;;;;623539;23;1237;-78
2023/08/06 00:34:14;;;;;;;3.55;2.40;;;;;;;;;;623536;23;1277;-78
2023/08/06 00:34:41;;;;;;;4.13;2.33;;;;;;;;;;620652;23;1260;-79
2023/08/06 00:35:26;;;;;;;2.92;2.10;;;;;;;;;;617958;23;1584;-77
2023/08/06 00:35:47;;;;;;;2.42;2.20;;;;;;;;;;609180;23;1567;-77
2023/08/06 00:36:25;;;;;;;2.50;2.13;;;;;;;;;;608898;24;1350;-77
2023/08/06 00:36:41;;;;;;;3.17;2.20;;;;;;;;;;616002;23;1270;-77
2023/08/06 00:36:59;;;;;;;2.83;2.20;;;;;;;;;;616983;23;1342;-76
2023/08/06 00:37:26;;;;;;;2.42;2.20;;;;;;;;;;614085;23;1364;-76
2023/08/06 00:37:48;;;;;;;3.78;2.40;;;;;;;;;;613745;23;1508;-77
2023/08/06 00:38:09;;;;;;;3.88;2.38;;;;;;;;;;617123;23;1489;-75
2023/08/06 00:38:45;;;;;;;3.58;2.30;;;;;;;;;;617396;23;1281;-76
2023/08/06 00:39:01;;;;;;;4.22;2.45;;;;;;;;;;608755;24;1496;-77
2023/08/06 00:39:19;;;;;;;3.40;2.33;;;;;;;;;;613803;23;1453;-77
2023/08/06 00:39:35;;;;;;;2.88;2.20;;;;;;;;;;615801;23;1347;-77
2023/08/06 00:39:51;;;;;;;3.60;2.30;;;;;;;;;;611581;23;1385;-77
2023/08/06 00:40:12;;;;;;;3.80;2.40;;;;;;;;;;617169;23;1150;-76
2023/08/06 00:40:31;;;;;;;3.22;2.50;;;;;;;;;;615178;23;1620;-76
2023/08/06 00:41:09;;;;;;;3.42;2.50;;;;;;;;;;618089;23;1421;-77
2023/08/06 00:41:34;;;;;;;3.10;2.20;;;;;;;;;;610047;24;1415;-78
2023/08/06 00:41:58;;;;;;;3.00;2.10;;;;;;;;;;618172;23;1155;-77
2023/08/06 00:42:14;;;;;;;2.60;1.98;;;;;;;;;;617959;23;1003;-78
2023/08/06 00:42:35;;;;;;;3.47;2.10;;;;;;;;;;620597;23;1324;-78
2023/08/06 00:42:54;;;;;;;3.70;2.20;;;;;;;;;;621016;23;1390;-78
2023/08/06 00:43:09;;;;;;;2.70;2.20;;;;;;;;;;620940;23;1298;-77
2023/08/06 00:43:34;;;;;;;2.80;2.30;;;;;;;;;;623592;23;823;-77
2023/08/06 00:43:53;;;;;;;4.13;2.25;;;;;;;;;;626113;23;1457;-77
2023/08/06 00:44:20;;;;;;;3.03;2.20;;;;;;;;;;623633;23;1323;-78
2023/08/06 00:44:37;;;;;;;4.47;2.50;;;;;;;;;;624623;23;1506;-78
2023/08/06 00:44:55;;;;;;;3.33;2.35;;;;;;;;;;623845;23;1412;-78
2023/08/06 00:45:19;;;;;;;2.60;2.15;;;;;;;;;;624396;23;1341;-78
2023/08/06 00:45:38;;;;;;;2.78;2.20;;;;;;;;;;621481;23;1011;-78
2023/08/06 00:46:12;;;;;;;2.47;2.25;;;;;;;;;;620069;23;1304;-77
2023/08/06 00:46:31;;;;;;;2.75;2.00;;;;;;;;;;620491;23;1177;-77
2023/08/06 00:46:47;;;;;;;3.42;2.10;;;;;;;;;;621158;23;1363;-78
2023/08/06 00:47:03;;;;;;;3.92;2.20;;;;;;;;;;623337;23;1322;-77
2023/08/06 00:47:20;;;;;;;3.42;2.20;;;;;;;;;;621472;23;1382;-78
2023/08/06 00:47:39;;;;;;;3.10;2.30;;;;;;;;;;621124;23;1455;-77
2023/08/06 00:48:27;;;;;;;2.75;2.10;;;;;;;;;;620329;23;1029;-77
2023/08/06 00:48:46;;;;;;;2.63;2.03;;;;;;;;;;608362;23;1538;-77
2023/08/06 00:49:24;;;;;;;2.90;2.20;;;;;;;;;;621417;23;966;-77
2023/08/06 00:49:41;;;;;;;3.40;2.30;;;;;;;;;;614864;23;1436;-77
2023/08/06 00:50:02;;;;;;;2.70;2.10;;;;;;;;;;625394;23;1227;-77
2023/08/06 00:50:21;;;;;;;2.78;2.22;;;;;;;;;;623527;23;1431;-76
2023/08/06 00:50:36;;;;;;;3.17;2.20;;;;;;;;;;624652;23;1379;-77
2023/08/06 00:50:52;;;;;;;3.40;2.08;;;;;;;;;;623475;23;1379;-76
2023/08/06 00:51:11;;;;;;;2.67;2.08;;;;;;;;;;624060;23;871;-75
2023/08/06 00:51:37;;;;;;;2.90;2.28;;;;;;;;;;623151;23;1483;-76
2023/08/06 00:51:56;;;;;;;3.45;2.50;;;;;;;;;;619944;23;1364;-76
2023/08/06 00:52:22;;;;;;;3.17;2.40;;;;;;;;;;620625;23;1554;-76
2023/08/06 00:52:43;;;;;;;3.10;2.30;;;;;;;;;;619652;23;1288;-77
2023/08/06 00:53:04;;;;;;;4.10;2.40;;;;;;;;;;623064;23;852;-77
2023/08/06 00:53:26;;;;;;;3.50;2.40;;;;;;;;;;621591;23;1328;-77
2023/08/06 00:54:01;;;;;;;3.50;2.30;;;;;;;;;;619401;23;1598;-76
2023/08/06 00:54:19;;;;;;;3.15;2.30;;;;;;;;;;618056;23;1373;-77
2023/08/06 00:54:36;;;;;;;2.95;2.42;;;;;;;;;;619574;23;1224;-76
2023/08/06 00:54:55;;;;;;;2.90;2.40;;;;;;;;;;620101;23;1482;-77
2023/08/06 00:55:15;;;;;;;2.90;2.35;;;;;;;;;;617750;23;1471;-76
2023/08/06 00:55:33;;;;;;;3.25;2.30;;;;;;;;;;617739;23;1447;-77
2023/08/06 00:55:50;;;;;;;3.47;2.30;;;;;;;;;;616932;23;1638;-76
2023/08/06 00:56:08;;;;;;;3.05;2.28;;;;;;;;;;615565;23;1553;-77
2023/08/06 00:56:27;;;;;;;4.47;2.20;;;;;;;;;;616994;23;1376;-76
2023/08/06 00:56:49;;;;;;;5.47;2.20;;;;;;;;;;617732;23;1260;-76
2023/08/06 00:57:05;;;;;;;3.95;2.13;;;;;;;;;;617850;23;1392;-77
2023/08/06 00:57:25;;;;;;;4.30;2.30;;;;;;;;;;619968;23;1379;-77
2023/08/06 00:57:41;;;;;;;3.72;2.40;;;;;;;;;;617044;23;1170;-77
2023/08/06 00:57:57;;;;;;;3.60;2.40;;;;;;;;;;617206;23;1237;-77
2023/08/06 00:58:15;;;;;;;2.63;2.33;;;;;;;;;;620310;23;1434;-77
2023/08/06 00:58:31;;;;;;;2.95;2.30;;;;;;;;;;620599;23;1534;-76
2023/08/06 00:58:57;;;;;;;3.87;2.30;;;;;;;;;;623098;23;1390;-76
2023/08/06 00:59:13;;;;;;;2.50;2.30;;;;;;;;;;620471;23;1533;-77
2023/08/06 00:59:36;;;;;;;2.90;2.20;;;;;;;;;;621393;23;954;-76
2023/08/06 00:59:54;;;;;;;3.53;2.40;;;;;;;;;;621263;23;1371;-76
2023/08/06 01:00:10;;;;;;;2.85;2.30;;;;;;;;;;618053;23;1407;-76
2023/08/06 01:00:27;;;;;;;3.08;2.20;;;;;;;;;;617151;23;1358;-76
2023/08/06 01:00:42;;;;;;;3.17;2.30;;;;;;;;;;619011;23;1280;-76
2023/08/06 01:00:58;;;;;;;3.00;2.40;;;;;;;;;;617256;23;1343;-76
2023/08/06 01:01:14;;;;;;;2.80;2.35;;;;;;;;;;620257;23;805;-76
2023/08/06 01:01:33;;;;;;;2.63;2.30;;;;;;;;;;620943;23;915;-77
2023/08/06 01:01:51;;;;;;;2.53;2.08;;;;;;;;;;620462;23;1292;-77
2023/08/06 01:02:10;;;;;;;2.78;2.20;;;;;;;;;;620775;23;903;-77
2023/08/06 01:02:25;;;;;;;3.50;2.43;;;;;;;;;;619923;23;1467;-77
2023/08/06 01:02:42;;;;;;;3.00;2.43;;;;;;;;;;622646;23;1290;-77
2023/08/06 01:03:03;;;;;;;3.08;2.35;;;;;;;;;;625261;23;912;-77
2023/08/06 01:03:21;;;;;;;2.70;2.30;;;;;;;;;;623761;23;1400;-77
2023/08/06 01:03:39;;;;;;;3.13;2.30;;;;;;;;;;620878;23;1298;-77
2023/08/06 01:04:01;;;;;;;4.35;2.25;;;;;;;;;;619685;23;1302;-77
2023/08/06 01:04:16;;;;;;;2.80;2.25;;;;;;;;;;619517;23;1151;-77
2023/08/06 01:04:33;;;;;;;2.70;2.00;;;;;;;;;;618253;23;1211;-76
2023/08/06 01:04:52;;;;;;;3.05;2.10;;;;;;;;;;620923;23;1326;-76
2023/08/06 01:05:08;;;;;;;2.80;2.17;;;;;;;;;;617530;23;1448;-77
2023/08/06 01:05:23;;;;;;;4.03;2.30;;;;;;;;;;617996;23;1248;-76
2023/08/06 01:05:39;;;;;;;4.22;2.55;;;;;;;;;;620085;23;1236;-76
2023/08/06 01:05:55;;;;;;;4.00;2.47;;;;;;;;;;617736;23;843;-76
2023/08/06 01:06:11;;;;;;;4.82;2.50;;;;;;;;;;617122;23;1276;-78
2023/08/06 01:06:51;;;;;;;4.17;2.33;;;;;;;;;;617466;23;1295;-76
2023/08/06 01:07:35;;;;;;;3.33;2.33;;;;;;;;;;619739;23;1425;-77
2023/08/06 01:08:23;;;;;;;3.80;2.60;;;;;;;;;;617882;23;1255;-77
2023/08/06 01:08:53;;;;;;;2.70;2.20;;;;;;;;;;620469;23;1268;-76
2023/08/06 01:09:39;;;;;;;4.72;2.30;;;;;;;;;;620103;23;1571;-76
2023/08/06 01:10:31;;;;;;;5.22;2.50;;;;;;;;;;609410;23;1270;-77
2023/08/06 01:10:54;;;;;;;2.78;2.20;;;;;;;;;;616429;23;1186;-75
2023/08/06 01:11:16;;;;;;;3.83;2.30;;;;;;;;;;620252;23;1492;-76
2023/08/06 01:11:37;;;;;;;2.85;2.30;;;;;;;;;;617308;23;1293;-76
2023/08/06 01:12:29;;;;;;;3.40;2.30;;;;;;;;;;619540;23;1615;-76
2023/08/06 01:13:16;;;;;;;2.83;2.20;;;;;;;;;;620367;23;1074;-77
2023/08/06 01:13:47;;;;;;;3.60;2.35;;;;;;;;;;622951;23;1405;-76
2023/08/06 01:14:15;;;;;;;3.90;2.35;;;;;;;;;;622418;23;890;-76
2023/08/06 01:14:57;;;;;;;2.55;2.10;;;;;;;;;;620054;23;1436;-77
2023/08/06 01:15:32;;;;;;;2.88;2.20;;;;;;;;;;620706;23;1040;-77
2023/08/06 01:15:51;;;;;;;3.35;2.33;;;;;;;;;;620352;23;1489;-75
2023/08/06 01:16:09;;;;;;;4.18;2.33;;;;;;;;;;617571;23;1279;-76
2023/08/06 01:16:25;;;;;;;3.33;2.20;;;;;;;;;;616094;23;1301;-77
2023/08/06 01:16:43;;;;;;;2.95;2.20;;;;;;;;;;617354;23;1538;-76
2023/08/06 01:17:04;;;;;;;2.53;2.25;;;;;;;;;;614832;23;1416;-77
2023/08/06 01:17:20;;;;;;;2.95;2.30;;;;;;;;;;614837;23;1466;-76
2023/08/06 01:17:36;;;;;;;2.85;2.15;;;;;;;;;;612098;23;1559;-78
2023/08/06 01:17:52;;;;;;;3.17;2.20;;;;;;;;;;614008;23;1535;-77
2023/08/06 01:18:08;;;;;;;3.80;2.40;;;;;;;;;;614147;23;1272;-77
2023/08/06 01:18:29;;;;;;;4.60;2.47;;;;;;;;;;613959;23;1282;-76
2023/08/06 01:18:49;;;;;;;2.50;2.10;;;;;;;;;;616721;23;1447;-77
2023/08/06 01:19:05;;;;;;;2.42;2.08;;;;;;;;;;617143;23;1250;-77
2023/08/06 01:19:21;;;;;;;3.83;2.25;;;;;;;;;;613472;23;1272;-77
2023/08/06 01:19:37;;;;;;;3.53;2.22;;;;;;;;;;613295;23;1281;-77
2023/08/06 01:20:19;;;;;;;3.33;2.28;;;;;;;;;;613636;23;1313;-77
2023/08/06 01:20:57;;;;;;;3.58;2.10;;;;;;;;;;610840;23;1362;-77
2023/08/06 01:21:16;;;;;;;2.78;2.30;;;;;;;;;;612657;23;1331;-76
2023/08/06 01:21:54;;;;;;;3.33;2.20;;;;;;;;;;617541;23;1558;-77
2023/08/06 01:22:10;;;;;;;4.53;2.30;;;;;;;;;;617151;23;939;-76
2023/08/06 01:22:25;;;;;;;3.93;2.53;;;;;;;;;;614947;23;1400;-78
2023/08/06 01:22:41;;;;;;;3.43;2.50;;;;;;;;;;617071;23;899;-77
2023/08/06 01:22:57;;;;;;;3.50;2.37;;;;;;;;;;617081;23;881;-78
2023/08/06 01:23:12;;;;;;;4.03;2.40;;;;;;;;;;619495;23;1245;-76
2023/08/06 01:23:28;;;;;;;3.90;2.38;;;;;;;;;;619223;23;1180;-77
2023/08/06 01:23:45;;;;;;;3.08;2.33;;;;;;;;;;617247;23;1123;-76
2023/08/06 01:24:04;;;;;;;2.90;2.20;;;;;;;;;;613554;23;1317;-77
2023/08/06 01:24:22;;;;;;;3.65;2.40;;;;;;;;;;610195;23;1332;-77
2023/08/06 01:24:41;;;;;;;3.28;2.50;;;;;;;;;;611483;23;1352;-77
2023/08/06 01:25:02;;;;;;;3.00;2.30;;;;;;;;;;610921;23;1277;-77
2023/08/06 01:25:17;;;;;;;3.25;2.15;;;;;;;;;;613465;23;1434;-76
2023/08/06 01:25:46;;;;;;;3.95;2.10;;;;;;;;;;616049;23;1126;-75
2023/08/06 01:26:15;;;;;;;2.75;2.30;;;;;;;;;;616986;23;1190;-75
2023/08/06 01:26:42;;;;;;;2.65;2.20;;;;;;;;;;616018;23;1350;-76
2023/08/06 01:27:08;;;;;;;3.28;2.13;;;;;;;;;;616708;23;1146;-75
2023/08/06 01:27:33;;;;;;;2.97;2.30;;;;;;;;;;617145;23;1428;-76
2023/08/06 01:27:50;;;;;;;4.18;2.45;;;;;;;;;;614664;23;943;-75
2023/08/06 01:28:22;;;;;;;4.00;2.40;;;;;;;;;;617356;23;1583;-76
2023/08/06 01:28:49;;;;;;;2.20;2.00;;;;;;;;;;616547;23;1134;-76
2023/08/06 01:29:10;;;;;;;3.33;2.10;;;;;;;;;;616115;23;1379;-75
2023/08/06 01:29:52;;;;;;;3.72;2.20;;;;;;;;;;619497;23;855;-75
2023/08/06 01:30:13;;;;;;;2.22;2.00;;;;;;;;;;619857;23;863;-75
2023/08/06 01:30:36;;;;;;;2.28;2.08;;;;;;;;;;617424;23;1331;-76
2023/08/06 01:30:55;;;;;;;2.70;2.30;;;;;;;;;;616905;23;1343;-76
2023/08/06 01:31:18;;;;;;;3.20;2.30;;;;;;;;;;616975;23;1414;-75
2023/08/06 01:31:38;;;;;;;3.55;2.30;;;;;;;;;;612803;23;1911;-75
2023/08/06 01:31:57;;;;;;;3.35;2.30;;;;;;;;;;609860;23;1769;-77
2023/08/06 01:32:16;;;;;;;3.05;2.20;;;;;;;;;;609823;23;895;-76
2023/08/06 01:32:34;;;;;;;3.35;2.05;;;;;;;;;;612746;23;1200;-76
2023/08/06 01:33:03;;;;;;;3.45;2.30;;;;;;;;;;614883;23;887;-75
2023/08/06 01:33:21;;;;;;;2.75;2.22;;;;;;;;;;615153;23;939;-76
2023/08/06 01:33:44;;;;;;;3.45;2.22;;;;;;;;;;616383;23;1229;-74
2023/08/06 01:34:05;;;;;;;5.07;2.30;;;;;;;;;;619302;23;902;-74
2023/08/06 01:34:23;;;;;;;4.03;2.50;;;;;;;;;;615791;23;1087;-75
2023/08/06 01:34:41;;;;;;;3.22;2.30;;;;;;;;;;612525;23;1498;-74
2023/08/06 01:35:00;;;;;;;3.38;2.30;;;;;;;;;;610251;24;1355;-75
2023/08/06 01:35:17;;;;;;;3.72;2.50;;;;;;;;;;608367;24;1230;-75
2023/08/06 01:35:35;;;;;;;3.10;2.30;;;;;;;;;;610044;24;1077;-75
2023/08/06 01:35:52;;;;;;;3.95;2.22;;;;;;;;;;610782;23;1265;-75
2023/08/06 01:36:09;;;;;;;3.50;2.22;;;;;;;;;;610798;23;1275;-74
2023/08/06 01:36:28;;;;;;;3.08;2.13;;;;;;;;;;613905;23;1527;-74
2023/08/06 01:36:44;;;;;;;3.35;2.25;;;;;;;;;;610286;23;1563;-74
2023/08/06 01:37:01;;;;;;;3.85;2.40;;;;;;;;;;610325;23;1378;-74
2023/08/06 01:37:23;;;;;;;3.30;2.40;;;;;;;;;;610936;23;923;-75
2023/08/06 01:37:42;;;;;;;2.92;2.30;;;;;;;;;;610992;23;1262;-76
2023/08/06 01:38:03;;;;;;;2.80;2.20;;;;;;;;;;611058;23;1404;-76
2023/08/06 01:38:19;;;;;;;3.20;2.28;;;;;;;;;;611756;23;1420;-74
2023/08/06 01:38:35;;;;;;;3.10;2.20;;;;;;;;;;614910;23;1461;-75
2023/08/06 01:38:57;;;;;;;2.70;2.20;;;;;;;;;;617189;23;1301;-75
2023/08/06 01:39:13;;;;;;;2.53;2.20;;;;;;;;;;619233;23;1463;-74
2023/08/06 01:39:28;;;;;;;3.28;2.20;;;;;;;;;;618225;23;1279;-76
2023/08/06 01:39:44;;;;;;;3.80;2.13;;;;;;;;;;618089;23;1321;-74
2023/08/06 01:39:59;;;;;;;3.23;2.10;;;;;;;;;;618039;23;1225;-76
2023/08/06 01:40:15;;;;;;;2.72;2.10;;;;;;;;;;618704;23;1092;-75
2023/08/06 01:40:32;;;;;;;3.53;2.30;;;;;;;;;;619016;23;760;-74
2023/08/06 01:40:48;;;;;;;3.58;2.25;;;;;;;;;;618726;23;832;-75
2023/08/06 01:41:04;;;;;;;3.42;2.30;;;;;;;;;;615470;23;1415;-75
2023/08/06 01:41:22;;;;;;;3.17;2.22;;;;;;;;;;612917;23;801;-75
2023/08/06 01:41:41;;;;;;;2.20;1.90;;;;;;;;;;611330;23;1522;-75
2023/08/06 01:41:56;;;;;;;2.42;1.80;;;;;;;;;;612171;23;1413;-75
2023/08/06 01:42:12;;;;;;;2.60;2.03;;;;;;;;;;611425;23;1293;-75
2023/08/06 01:42:31;;;;;;;3.20;2.30;;;;;;;;;;609782;23;1480;-76
2023/08/06 01:42:46;;;;;;;3.45;2.20;;;;;;;;;;610158;24;931;-75
2023/08/06 01:43:02;;;;;;;3.30;2.10;;;;;;;;;;610637;24;1203;-75
2023/08/06 01:43:18;;;;;;;3.75;2.10;;;;;;;;;;610225;24;949;-75
2023/08/06 01:43:37;;;;;;;3.08;2.03;;;;;;;;;;609961;24;1273;-76
2023/08/06 01:43:52;;;;;;;2.83;2.10;;;;;;;;;;609876;24;1341;-74
2023/08/06 01:44:08;;;;;;;3.92;2.25;;;;;;;;;;612406;23;1271;-75
2023/08/06 01:44:24;;;;;;;4.40;2.20;;;;;;;;;;615418;23;1493;-75
2023/08/06 01:44:43;;;;;;;3.45;2.30;;;;;;;;;;615134;23;1255;-75
2023/08/06 01:45:22;;;;;;;4.22;2.47;;;;;;;;;;615277;23;1403;-75
2023/08/06 01:45:37;;;;;;;3.35;2.28;;;;;;;;;;615675;23;1337;-74
2023/08/06 01:45:53;;;;;;;2.30;2.10;;;;;;;;;;618308;23;1357;-75
2023/08/06 01:46:08;;;;;;;3.23;2.20;;;;;;;;;;618698;23;927;-75
2023/08/06 01:46:27;;;;;;;4.60;2.35;;;;;;;;;;612722;23;1480;-75
2023/08/06 01:46:43;;;;;;;4.40;2.40;;;;;;;;;;616381;23;1272;-75
2023/08/06 01:46:59;;;;;;;3.25;2.25;;;;;;;;;;616052;23;1357;-75
2023/08/06 01:47:14;;;;;;;4.55;2.40;;;;;;;;;;614973;23;836;-75
2023/08/06 01:47:30;;;;;;;4.55;2.22;;;;;;;;;;615370;23;1196;-75
2023/08/06 01:47:45;;;;;;;3.00;2.00;;;;;;;;;;613514;23;1480;-74
2023/08/06 01:48:01;;;;;;;3.63;2.33;;;;;;;;;;615160;23;864;-75
2023/08/06 01:48:17;;;;;;;4.23;2.40;;;;;;;;;;612517;23;1218;-75
2023/08/06 01:48:35;;;;;;;4.30;2.25;;;;;;;;;;612745;23;1270;-74
2023/08/06 01:48:51;;;;;;;3.63;2.20;;;;;;;;;;615078;23;840;-75
2023/08/06 01:49:07;;;;;;;4.30;2.20;;;;;;;;;;615757;23;1374;-74
2023/08/06 01:49:43;;;;;;;4.10;2.15;;;;;;;;;;615466;23;1360;-74
2023/08/06 01:49:59;;;;;;;3.53;2.33;;;;;;;;;;611607;23;1591;-74
2023/08/06 01:50:14;;;;;;;2.97;2.10;;;;;;;;;;612247;23;1021;-75
2023/08/06 01:50:32;;;;;;;3.20;2.20;;;;;;;;;;612698;23;1018;-76
2023/08/06 01:50:48;;;;;;;3.30;2.40;;;;;;;;;;612597;23;848;-75
2023/08/06 01:51:05;;;;;;;3.23;2.20;;;;;;;;;;611771;23;1000;-76
2023/08/06 01:51:21;;;;;;;3.03;2.30;;;;;;;;;;616006;23;1216;-76
2023/08/06 01:51:36;;;;;;;3.00;2.30;;;;;;;;;;613711;23;1893;-75
2023/08/06 01:51:55;;;;;;;3.10;2.20;;;;;;;;;;611831;23;1238;-73
2023/08/06 01:52:10;;;;;;;3.25;2.20;;;;;;;;;;611912;23;1408;-75
2023/08/06 01:52:27;;;;;;;3.50;2.35;;;;;;;;;;609323;23;1226;-75
2023/08/06 01:52:43;;;;;;;2.67;2.13;;;;;;;;;;612938;23;1262;-75
2023/08/06 01:53:04;;;;;;;2.28;1.95;;;;;;;;;;609773;23;1385;-75
2023/08/06 01:53:20;;;;;;;3.67;2.20;;;;;;;;;;612469;23;1496;-75
2023/08/06 01:53:38;;;;;;;5.20;2.30;;;;;;;;;;615065;23;1246;-74
2023/08/06 01:53:56;;;;;;;4.18;2.17;;;;;;;;;;614502;23;1293;-75
2023/08/06 01:54:15;;;;;;;2.78;2.00;;;;;;;;;;612903;23;1544;-75
2023/08/06 01:54:31;;;;;;;4.35;2.10;;;;;;;;;;612819;23;1409;-74
2023/08/06 01:54:50;;;;;;;4.63;2.28;;;;;;;;;;610085;23;1273;-75
2023/08/06 01:55:06;;;;;;;4.75;2.17;;;;;;;;;;609346;23;875;-75
2023/08/06 01:55:24;;;;;;;4.25;2.10;;;;;;;;;;606199;24;1176;-75
2023/08/06 01:55:40;;;;;;;3.13;2.00;;;;;;;;;;609161;24;1076;-75
2023/08/06 01:55:56;;;;;;;3.77;2.10;;;;;;;;;;612273;23;1234;-74
2023/08/06 01:56:15;;;;;;;4.88;2.20;;;;;;;;;;612710;23;800;-75
2023/08/06 01:56:30;;;;;;;4.25;2.30;;;;;;;;;;615186;23;851;-75
2023/08/06 01:56:46;;;;;;;3.20;2.35;;;;;;;;;;615491;23;820;-75
2023/08/06 01:57:08;;;;;;;3.70;2.37;;;;;;;;;;618540;23;835;-74
2023/08/06 01:57:27;;;;;;;3.78;2.30;;;;;;;;;;618597;23;883;-74
2023/08/06 01:57:45;;;;;;;3.60;2.25;;;;;;;;;;615498;23;1376;-74
2023/08/06 01:58:04;;;;;;;3.20;2.03;;;;;;;;;;618871;23;800;-74
2023/08/06 01:58:19;;;;;;;3.33;2.30;;;;;;;;;;617794;23;1311;-75
2023/08/06 01:58:38;;;;;;;3.03;2.25;;;;;;;;;;618417;23;819;-75
2023/08/06 01:58:54;;;;;;;3.80;2.30;;;;;;;;;;616519;23;1494;-75
2023/08/06 01:59:10;;;;;;;3.90;2.38;;;;;;;;;;619195;23;896;-75
2023/08/06 01:59:26;;;;;;;3.17;2.20;;;;;;;;;;615881;23;1505;-74
2023/08/06 01:59:41;;;;;;;2.90;2.10;;;;;;;;;;613241;23;1458;-75
2023/08/06 01:59:57;;;;;;;3.30;1.95;;;;;;;;;;609308;24;1310;-75
2023/08/06 02:00:13;;;;;;;4.03;2.23;;;;;;;;;;610560;23;837;-75
2023/08/06 02:00:35;;;;;;;3.90;2.33;;;;;;;;;;609444;24;1377;-75
2023/08/06 02:00:51;;;;;;;5.10;2.40;;;;;;;;;;609597;24;1290;-75
2023/08/06 02:01:09;;;;;;;3.65;2.25;;;;;;;;;;606559;24;1259;-74
2023/08/06 02:01:27;;;;;;;3.15;2.15;;;;;;;;;;610073;24;1176;-74
2023/08/06 02:01:43;;;;;;;2.90;2.30;;;;;;;;;;613029;23;1159;-74
2023/08/06 02:02:01;;;;;;;2.40;2.20;;;;;;;;;;613048;23;1353;-74
2023/08/06 02:02:19;;;;;;;2.50;2.30;;;;;;;;;;610017;23;1311;-75
2023/08/06 02:02:38;;;;;;;3.35;2.40;;;;;;;;;;609557;24;1332;-75
2023/08/06 02:02:54;;;;;;;3.45;2.30;;;;;;;;;;612488;23;804;-74
2023/08/06 02:03:09;;;;;;;2.95;2.15;;;;;;;;;;615699;23;840;-75
2023/08/06 02:03:45;;;;;;;3.85;2.22;;;;;;;;;;615452;23;967;-75
2023/08/06 02:04:06;;;;;;;3.03;2.05;;;;;;;;;;613721;23;1295;-74
2023/08/06 02:04:21;;;;;;;3.47;2.20;;;;;;;;;;615220;23;1305;-75
2023/08/06 02:04:43;;;;;;;3.13;2.30;;;;;;;;;;615433;23;1456;-75
2023/08/06 02:04:59;;;;;;;3.58;2.40;;;;;;;;;;612512;23;1436;-74
2023/08/06 02:05:21;;;;;;;3.88;2.30;;;;;;;;;;609669;23;1376;-75
2023/08/06 02:05:39;;;;;;;3.45;2.30;;;;;;;;;;609977;23;1222;-75
2023/08/06 02:05:57;;;;;;;4.13;2.30;;;;;;;;;;610225;24;975;-74
2023/08/06 02:06:13;;;;;;;3.63;2.40;;;;;;;;;;610217;23;1355;-74
2023/08/06 02:06:30;;;;;;;3.70;2.30;;;;;;;;;;613210;23;864;-75
2023/08/06 02:06:55;;;;;;;3.47;2.38;;;;;;;;;;612493;23;1423;-75
2023/08/06 02:07:10;;;;;;;3.13;2.30;;;;;;;;;;613736;23;1325;-75
2023/08/06 02:07:28;;;;;;;3.43;2.30;;;;;;;;;;616604;23;1095;-75